sensor_id;sensor_type;location;lat;lon;timestamp;P1;durP1;ratioP1;P2;durP2;ratioP2
2438;SDS011;14509;47.992;7.848;2023-04-16T00:01:31;10.97;;;9.17;;
2438;SDS011;14509;47.992;7.848;2023-04-16T00:03:33;13.60;;;9.50;;
2438;SDS011;14509;47.992;7.848;2023-04-16T00:05:35;13.40;;;11.03;;
2438;SDS011;14509;47.992;7.848;2023-04-16T00:07:37;11.37;;;9.17;;
2438;SDS011;14509;47.992;7.848;2023-04-16T00:09:40;12.97;;;9.97;;
2438;SDS011;14509;47.992;7.848;2023-04-16T00:11:43;17.73;;;9.70;;
2438;SDS011;14509;47.992;7.848;2023-04-16T00:13:45;12.57;;;10.50;;
2438;SDS011;14509;47.992;7.848;2023-04-16T00:15:48;13.10;;;9.67;;
2438;SDS011;14509;47.992;7.848;2023-04-16T00:17:50;12.43;;;9.30;;
2438;SDS011;14509;47.992;7.848;2023-04-16T00:19:52;12.70;;;9.83;;
2438;SDS011;14509;47.992;7.848;2023-04-16T00:21:54;12.70;;;9.50;;
2438;SDS011;14509;47.992;7.848;2023-04-16T00:23:56;9.53;;;8.00;;
2438;SDS011;14509;47.992;7.848;2023-04-16T00:25:58;11.10;;;8.40;;
2438;SDS011;14509;47.992;7.848;2023-04-16T00:28:01;11.70;;;9.77;;
2438;SDS011;14509;47.992;7.848;2023-04-16T00:30:03;10.70;;;8.77;;
2438;SDS011;14509;47.992;7.848;2023-04-16T00:32:06;11.00;;;9.40;;
2438;SDS011;14509;47.992;7.848;2023-04-16T00:34:09;11.07;;;9.20;;
2438;SDS011;14509;47.992;7.848;2023-04-16T00:36:11;9.77;;;8.77;;
2438;SDS011;14509;47.992;7.848;2023-04-16T00:38:13;12.97;;;9.00;;
2438;SDS011;14509;47.992;7.848;2023-04-16T00:40:15;11.33;;;9.43;;
2438;SDS011;14509;47.992;7.848;2023-04-16T00:42:17;12.77;;;9.30;;
2438;SDS011;14509;47.992;7.848;2023-04-16T00:44:21;11.17;;;7.20;;
2438;SDS011;14509;47.992;7.848;2023-04-16T00:46:23;12.73;;;8.90;;
2438;SDS011;14509;47.992;7.848;2023-04-16T00:48:25;10.73;;;8.00;;
2438;SDS011;14509;47.992;7.848;2023-04-16T00:50:28;12.93;;;9.63;;
2438;SDS011;14509;47.992;7.848;2023-04-16T00:52:30;15.07;;;9.43;;
2438;SDS011;14509;47.992;7.848;2023-04-16T00:54:32;17.63;;;9.23;;
2438;SDS011;14509;47.992;7.848;2023-04-16T00:56:34;9.53;;;7.53;;
2438;SDS011;14509;47.992;7.848;2023-04-16T00:58:37;8.30;;;6.83;;
2438;SDS011;14509;47.992;7.848;2023-04-16T01:00:40;11.10;;;7.57;;
2438;SDS011;14509;47.992;7.848;2023-04-16T01:02:42;10.07;;;8.87;;
2438;SDS011;14509;47.992;7.848;2023-04-16T01:04:45;8.67;;;7.70;;
2438;SDS011;14509;47.992;7.848;2023-04-16T01:06:47;10.40;;;8.27;;
2438;SDS011;14509;47.992;7.848;2023-04-16T01:08:48;11.87;;;8.97;;
2438;SDS011;14509;47.992;7.848;2023-04-16T01:10:50;11.70;;;8.67;;
2438;SDS011;14509;47.992;7.848;2023-04-16T01:12:52;11.20;;;8.73;;
2438;SDS011;14509;47.992;7.848;2023-04-16T01:14:54;10.33;;;8.30;;
2438;SDS011;14509;47.992;7.848;2023-04-16T01:16:58;13.38;;;10.10;;
2438;SDS011;14509;47.992;7.848;2023-04-16T01:19:00;11.60;;;9.90;;
2438;SDS011;14509;47.992;7.848;2023-04-16T01:21:04;9.17;;;7.90;;
2438;SDS011;14509;47.992;7.848;2023-04-16T01:23:06;10.90;;;7.97;;
2438;SDS011;14509;47.992;7.848;2023-04-16T01:25:12;10.73;;;8.63;;
2438;SDS011;14509;47.992;7.848;2023-04-16T01:27:14;13.63;;;8.97;;
2438;SDS011;14509;47.992;7.848;2023-04-16T01:29:16;10.03;;;8.43;;
2438;SDS011;14509;47.992;7.848;2023-04-16T01:31:19;12.50;;;9.30;;
2438;SDS011;14509;47.992;7.848;2023-04-16T01:33:40;8.90;;;7.93;;
2438;SDS011;14509;47.992;7.848;2023-04-16T01:35:45;13.35;;;10.98;;
2438;SDS011;14509;47.992;7.848;2023-04-16T01:37:50;14.73;;;8.20;;
2438;SDS011;14509;47.992;7.848;2023-04-16T01:39:52;9.23;;;7.80;;
2438;SDS011;14509;47.992;7.848;2023-04-16T01:41:54;13.80;;;8.97;;
2438;SDS011;14509;47.992;7.848;2023-04-16T01:43:56;12.30;;;9.00;;
2438;SDS011;14509;47.992;7.848;2023-04-16T01:46:04;11.57;;;8.20;;
2438;SDS011;14509;47.992;7.848;2023-04-16T01:48:12;11.67;;;8.77;;
2438;SDS011;14509;47.992;7.848;2023-04-16T01:50:14;12.73;;;9.50;;
2438;SDS011;14509;47.992;7.848;2023-04-16T01:52:17;11.67;;;8.77;;
2438;SDS011;14509;47.992;7.848;2023-04-16T01:54:20;14.57;;;9.27;;
2438;SDS011;14509;47.992;7.848;2023-04-16T01:56:22;12.33;;;8.93;;
2438;SDS011;14509;47.992;7.848;2023-04-16T01:58:24;9.83;;;8.27;;
2438;SDS011;14509;47.992;7.848;2023-04-16T02:00:28;10.23;;;8.37;;
2438;SDS011;14509;47.992;7.848;2023-04-16T02:02:30;10.30;;;8.53;;
2438;SDS011;14509;47.992;7.848;2023-04-16T02:04:33;10.47;;;8.80;;
2438;SDS011;14509;47.992;7.848;2023-04-16T02:06:35;10.57;;;7.53;;
2438;SDS011;14509;47.992;7.848;2023-04-16T02:08:36;8.03;;;7.00;;
2438;SDS011;14509;47.992;7.848;2023-04-16T02:10:40;9.60;;;8.13;;
2438;SDS011;14509;47.992;7.848;2023-04-16T02:12:42;9.07;;;7.70;;
2438;SDS011;14509;47.992;7.848;2023-04-16T02:14:44;11.10;;;8.00;;
2438;SDS011;14509;47.992;7.848;2023-04-16T02:16:47;9.80;;;7.80;;
2438;SDS011;14509;47.992;7.848;2023-04-16T02:19:09;10.67;;;7.30;;
2438;SDS011;14509;47.992;7.848;2023-04-16T02:21:11;9.97;;;6.70;;
2438;SDS011;14509;47.992;7.848;2023-04-16T02:23:14;9.40;;;7.93;;
2438;SDS011;14509;47.992;7.848;2023-04-16T02:25:17;9.43;;;7.27;;
2438;SDS011;14509;47.992;7.848;2023-04-16T02:27:20;9.30;;;6.93;;
2438;SDS011;14509;47.992;7.848;2023-04-16T02:29:26;8.40;;;7.07;;
2438;SDS011;14509;47.992;7.848;2023-04-16T02:31:35;8.97;;;7.30;;
2438;SDS011;14509;47.992;7.848;2023-04-16T02:33:38;8.97;;;6.23;;
2438;SDS011;14509;47.992;7.848;2023-04-16T02:35:40;10.67;;;7.40;;
2438;SDS011;14509;47.992;7.848;2023-04-16T02:37:42;8.20;;;6.80;;
2438;SDS011;14509;47.992;7.848;2023-04-16T02:39:44;8.57;;;7.07;;
2438;SDS011;14509;47.992;7.848;2023-04-16T02:41:47;9.80;;;6.80;;
2438;SDS011;14509;47.992;7.848;2023-04-16T02:43:50;7.33;;;6.63;;
2438;SDS011;14509;47.992;7.848;2023-04-16T02:45:52;9.90;;;7.00;;
2438;SDS011;14509;47.992;7.848;2023-04-16T02:47:54;7.20;;;6.47;;
2438;SDS011;14509;47.992;7.848;2023-04-16T02:49:56;8.87;;;7.37;;
2438;SDS011;14509;47.992;7.848;2023-04-16T02:51:58;10.13;;;7.00;;
2438;SDS011;14509;47.992;7.848;2023-04-16T02:54:00;10.30;;;7.47;;
2438;SDS011;14509;47.992;7.848;2023-04-16T02:56:03;7.73;;;6.13;;
2438;SDS011;14509;47.992;7.848;2023-04-16T02:58:06;9.40;;;6.87;;
2438;SDS011;14509;47.992;7.848;2023-04-16T03:00:09;7.97;;;7.20;;
2438;SDS011;14509;47.992;7.848;2023-04-16T03:02:12;7.00;;;6.40;;
2438;SDS011;14509;47.992;7.848;2023-04-16T03:04:15;8.20;;;6.90;;
2438;SDS011;14509;47.992;7.848;2023-04-16T03:06:17;7.90;;;6.40;;
2438;SDS011;14509;47.992;7.848;2023-04-16T03:08:19;8.47;;;6.47;;
2438;SDS011;14509;47.992;7.848;2023-04-16T03:10:21;8.10;;;6.07;;
2438;SDS011;14509;47.992;7.848;2023-04-16T03:12:23;7.70;;;6.30;;
2438;SDS011;14509;47.992;7.848;2023-04-16T03:14:25;6.90;;;6.20;;
2438;SDS011;14509;47.992;7.848;2023-04-16T03:16:28;7.90;;;6.50;;
2438;SDS011;14509;47.992;7.848;2023-04-16T03:18:30;7.47;;;6.17;;
2438;SDS011;14509;47.992;7.848;2023-04-16T03:20:32;6.97;;;5.43;;
2438;SDS011;14509;47.992;7.848;2023-04-16T03:22:34;8.30;;;6.40;;
2438;SDS011;14509;47.992;7.848;2023-04-16T03:24:36;8.40;;;6.83;;
2438;SDS011;14509;47.992;7.848;2023-04-16T03:26:38;7.40;;;6.00;;
2438;SDS011;14509;47.992;7.848;2023-04-16T03:28:40;7.73;;;5.50;;
2438;SDS011;14509;47.992;7.848;2023-04-16T03:30:42;7.73;;;6.47;;
2438;SDS011;14509;47.992;7.848;2023-04-16T03:32:51;6.27;;;5.57;;
2438;SDS011;14509;47.992;7.848;2023-04-16T03:34:53;8.03;;;5.80;;
2438;SDS011;14509;47.992;7.848;2023-04-16T03:36:55;8.00;;;6.50;;
2438;SDS011;14509;47.992;7.848;2023-04-16T03:38:57;6.77;;;6.17;;
2438;SDS011;14509;47.992;7.848;2023-04-16T03:41:00;8.13;;;6.60;;
2438;SDS011;14509;47.992;7.848;2023-04-16T03:43:04;11.10;;;6.60;;
2438;SDS011;14509;47.992;7.848;2023-04-16T03:45:06;12.40;;;8.87;;
2438;SDS011;14509;47.992;7.848;2023-04-16T03:47:10;6.43;;;5.83;;
2438;SDS011;14509;47.992;7.848;2023-04-16T03:49:13;9.33;;;7.30;;
2438;SDS011;14509;47.992;7.848;2023-04-16T03:51:15;7.93;;;6.40;;
2438;SDS011;14509;47.992;7.848;2023-04-16T03:53:17;6.13;;;5.47;;
2438;SDS011;14509;47.992;7.848;2023-04-16T03:55:20;7.80;;;6.97;;
2438;SDS011;14509;47.992;7.848;2023-04-16T03:57:22;7.97;;;6.50;;
2438;SDS011;14509;47.992;7.848;2023-04-16T03:59:25;8.77;;;6.83;;
2438;SDS011;14509;47.992;7.848;2023-04-16T04:01:26;8.43;;;6.80;;
2438;SDS011;14509;47.992;7.848;2023-04-16T04:03:28;7.03;;;6.33;;
2438;SDS011;14509;47.992;7.848;2023-04-16T04:05:34;7.50;;;5.80;;
2438;SDS011;14509;47.992;7.848;2023-04-16T04:07:37;8.93;;;6.20;;
2438;SDS011;14509;47.992;7.848;2023-04-16T04:09:39;10.23;;;6.50;;
2438;SDS011;14509;47.992;7.848;2023-04-16T04:11:41;7.80;;;6.50;;
2438;SDS011;14509;47.992;7.848;2023-04-16T04:13:43;7.90;;;6.53;;
2438;SDS011;14509;47.992;7.848;2023-04-16T04:15:45;7.70;;;6.83;;
2438;SDS011;14509;47.992;7.848;2023-04-16T04:17:47;8.23;;;6.60;;
2438;SDS011;14509;47.992;7.848;2023-04-16T04:19:49;6.73;;;5.90;;
2438;SDS011;14509;47.992;7.848;2023-04-16T04:21:53;8.77;;;6.87;;
2438;SDS011;14509;47.992;7.848;2023-04-16T04:23:55;7.90;;;6.63;;
2438;SDS011;14509;47.992;7.848;2023-04-16T04:25:57;6.27;;;5.67;;
2438;SDS011;14509;47.992;7.848;2023-04-16T04:28:02;9.00;;;7.37;;
2438;SDS011;14509;47.992;7.848;2023-04-16T04:30:06;6.63;;;6.00;;
2438;SDS011;14509;47.992;7.848;2023-04-16T04:32:09;8.97;;;6.70;;
2438;SDS011;14509;47.992;7.848;2023-04-16T04:34:11;9.77;;;6.67;;
2438;SDS011;14509;47.992;7.848;2023-04-16T04:36:13;8.23;;;7.00;;
2438;SDS011;14509;47.992;7.848;2023-04-16T04:38:17;7.93;;;6.30;;
2438;SDS011;14509;47.992;7.848;2023-04-16T04:40:22;10.27;;;7.03;;
2438;SDS011;14509;47.992;7.848;2023-04-16T04:42:25;7.63;;;6.60;;
2438;SDS011;14509;47.992;7.848;2023-04-16T04:44:29;8.77;;;6.50;;
2438;SDS011;14509;47.992;7.848;2023-04-16T04:46:31;7.43;;;5.57;;
2438;SDS011;14509;47.992;7.848;2023-04-16T04:48:32;8.47;;;7.23;;
2438;SDS011;14509;47.992;7.848;2023-04-16T04:50:35;10.73;;;8.00;;
2438;SDS011;14509;47.992;7.848;2023-04-16T04:52:37;7.47;;;6.50;;
2438;SDS011;14509;47.992;7.848;2023-04-16T04:54:41;10.57;;;7.13;;
2438;SDS011;14509;47.992;7.848;2023-04-16T04:56:43;7.07;;;6.37;;
2438;SDS011;14509;47.992;7.848;2023-04-16T04:58:48;8.93;;;7.60;;
2438;SDS011;14509;47.992;7.848;2023-04-16T05:00:50;9.53;;;6.67;;
2438;SDS011;14509;47.992;7.848;2023-04-16T05:02:51;8.60;;;7.40;;
2438;SDS011;14509;47.992;7.848;2023-04-16T05:04:53;8.03;;;6.43;;
2438;SDS011;14509;47.992;7.848;2023-04-16T05:06:55;6.80;;;5.67;;
2438;SDS011;14509;47.992;7.848;2023-04-16T05:08:57;7.30;;;6.17;;
2438;SDS011;14509;47.992;7.848;2023-04-16T05:11:01;8.30;;;6.53;;
2438;SDS011;14509;47.992;7.848;2023-04-16T05:13:02;8.30;;;6.33;;
2438;SDS011;14509;47.992;7.848;2023-04-16T05:15:05;8.60;;;6.17;;
2438;SDS011;14509;47.992;7.848;2023-04-16T05:17:07;7.60;;;6.47;;
2438;SDS011;14509;47.992;7.848;2023-04-16T05:19:09;10.93;;;7.10;;
2438;SDS011;14509;47.992;7.848;2023-04-16T05:21:11;6.73;;;5.17;;
2438;SDS011;14509;47.992;7.848;2023-04-16T05:23:13;6.97;;;6.07;;
2438;SDS011;14509;47.992;7.848;2023-04-16T05:25:15;9.07;;;7.23;;
2438;SDS011;14509;47.992;7.848;2023-04-16T05:27:19;7.30;;;5.80;;
2438;SDS011;14509;47.992;7.848;2023-04-16T05:29:20;7.80;;;6.50;;
2438;SDS011;14509;47.992;7.848;2023-04-16T05:31:22;7.07;;;4.93;;
2438;SDS011;14509;47.992;7.848;2023-04-16T05:33:24;8.17;;;7.37;;
2438;SDS011;14509;47.992;7.848;2023-04-16T05:35:26;8.00;;;6.80;;
2438;SDS011;14509;47.992;7.848;2023-04-16T05:37:28;10.10;;;7.23;;
2438;SDS011;14509;47.992;7.848;2023-04-16T05:39:30;8.37;;;5.93;;
2438;SDS011;14509;47.992;7.848;2023-04-16T05:41:32;8.10;;;6.10;;
2438;SDS011;14509;47.992;7.848;2023-04-16T05:43:35;8.23;;;7.10;;
2438;SDS011;14509;47.992;7.848;2023-04-16T05:45:37;9.13;;;7.60;;
2438;SDS011;14509;47.992;7.848;2023-04-16T05:47:40;7.30;;;6.60;;
2438;SDS011;14509;47.992;7.848;2023-04-16T05:49:42;7.10;;;6.30;;
2438;SDS011;14509;47.992;7.848;2023-04-16T05:51:44;9.10;;;7.70;;
2438;SDS011;14509;47.992;7.848;2023-04-16T05:53:45;8.07;;;6.20;;
2438;SDS011;14509;47.992;7.848;2023-04-16T05:55:47;6.63;;;5.73;;
2438;SDS011;14509;47.992;7.848;2023-04-16T05:57:49;7.47;;;6.70;;
2438;SDS011;14509;47.992;7.848;2023-04-16T05:59:52;6.97;;;6.27;;
2438;SDS011;14509;47.992;7.848;2023-04-16T06:01:54;8.67;;;6.90;;
2438;SDS011;14509;47.992;7.848;2023-04-16T06:03:56;9.60;;;7.13;;
2438;SDS011;14509;47.992;7.848;2023-04-16T06:05:58;6.97;;;6.27;;
2438;SDS011;14509;47.992;7.848;2023-04-16T06:08:00;10.90;;;7.63;;
2438;SDS011;14509;47.992;7.848;2023-04-16T06:10:02;8.13;;;6.40;;
2438;SDS011;14509;47.992;7.848;2023-04-16T06:12:04;7.27;;;6.03;;
2438;SDS011;14509;47.992;7.848;2023-04-16T06:14:06;8.90;;;6.67;;
2438;SDS011;14509;47.992;7.848;2023-04-16T06:16:09;6.57;;;5.97;;
2438;SDS011;14509;47.992;7.848;2023-04-16T06:18:11;6.57;;;5.30;;
2438;SDS011;14509;47.992;7.848;2023-04-16T06:20:13;8.17;;;7.20;;
2438;SDS011;14509;47.992;7.848;2023-04-16T06:22:15;6.60;;;5.93;;
2438;SDS011;14509;47.992;7.848;2023-04-16T06:24:17;6.90;;;6.00;;
2438;SDS011;14509;47.992;7.848;2023-04-16T06:26:19;8.00;;;6.03;;
2438;SDS011;14509;47.992;7.848;2023-04-16T06:28:21;8.50;;;6.83;;
2438;SDS011;14509;47.992;7.848;2023-04-16T06:30:23;7.30;;;6.43;;
2438;SDS011;14509;47.992;7.848;2023-04-16T06:32:26;8.90;;;7.30;;
2438;SDS011;14509;47.992;7.848;2023-04-16T06:34:28;8.00;;;7.20;;
2438;SDS011;14509;47.992;7.848;2023-04-16T06:36:30;8.07;;;7.27;;
2438;SDS011;14509;47.992;7.848;2023-04-16T06:38:32;10.67;;;6.83;;
2438;SDS011;14509;47.992;7.848;2023-04-16T06:40:34;9.97;;;6.80;;
2438;SDS011;14509;47.992;7.848;2023-04-16T06:42:37;6.97;;;6.23;;
2438;SDS011;14509;47.992;7.848;2023-04-16T06:44:38;9.43;;;6.57;;
2438;SDS011;14509;47.992;7.848;2023-04-16T06:46:40;6.53;;;5.87;;
2438;SDS011;14509;47.992;7.848;2023-04-16T06:48:44;7.27;;;6.40;;
2438;SDS011;14509;47.992;7.848;2023-04-16T06:50:46;7.90;;;7.10;;
2438;SDS011;14509;47.992;7.848;2023-04-16T06:52:48;7.83;;;6.50;;
2438;SDS011;14509;47.992;7.848;2023-04-16T06:54:49;9.97;;;6.87;;
2438;SDS011;14509;47.992;7.848;2023-04-16T06:56:51;10.33;;;7.57;;
2438;SDS011;14509;47.992;7.848;2023-04-16T06:58:53;9.17;;;7.97;;
2438;SDS011;14509;47.992;7.848;2023-04-16T07:00:56;8.23;;;6.80;;
2438;SDS011;14509;47.992;7.848;2023-04-16T07:02:59;10.40;;;6.80;;
2438;SDS011;14509;47.992;7.848;2023-04-16T07:05:04;10.47;;;7.20;;
2438;SDS011;14509;47.992;7.848;2023-04-16T07:07:06;7.00;;;6.30;;
2438;SDS011;14509;47.992;7.848;2023-04-16T07:09:08;11.23;;;8.30;;
2438;SDS011;14509;47.992;7.848;2023-04-16T07:11:10;9.17;;;7.07;;
2438;SDS011;14509;47.992;7.848;2023-04-16T07:13:12;7.73;;;6.73;;
2438;SDS011;14509;47.992;7.848;2023-04-16T07:15:14;8.53;;;7.57;;
2438;SDS011;14509;47.992;7.848;2023-04-16T07:17:16;9.77;;;6.17;;
2438;SDS011;14509;47.992;7.848;2023-04-16T07:19:18;9.50;;;6.47;;
2438;SDS011;14509;47.992;7.848;2023-04-16T07:21:22;8.10;;;6.73;;
2438;SDS011;14509;47.992;7.848;2023-04-16T07:23:24;12.20;;;9.07;;
2438;SDS011;14509;47.992;7.848;2023-04-16T07:25:25;12.33;;;7.93;;
2438;SDS011;14509;47.992;7.848;2023-04-16T07:27:27;7.87;;;6.80;;
2438;SDS011;14509;47.992;7.848;2023-04-16T07:29:29;8.53;;;7.00;;
2438;SDS011;14509;47.992;7.848;2023-04-16T07:31:31;9.20;;;8.13;;
2438;SDS011;14509;47.992;7.848;2023-04-16T07:33:33;10.57;;;7.83;;
2438;SDS011;14509;47.992;7.848;2023-04-16T07:35:38;8.67;;;7.60;;
2438;SDS011;14509;47.992;7.848;2023-04-16T07:37:41;8.07;;;6.10;;
2438;SDS011;14509;47.992;7.848;2023-04-16T07:39:43;11.17;;;8.87;;
2438;SDS011;14509;47.992;7.848;2023-04-16T07:41:45;11.13;;;7.37;;
2438;SDS011;14509;47.992;7.848;2023-04-16T07:43:47;9.17;;;6.50;;
2438;SDS011;14509;47.992;7.848;2023-04-16T07:45:48;8.10;;;7.30;;
2438;SDS011;14509;47.992;7.848;2023-04-16T07:47:50;6.90;;;6.17;;
2438;SDS011;14509;47.992;7.848;2023-04-16T07:49:52;8.20;;;7.10;;
2438;SDS011;14509;47.992;7.848;2023-04-16T07:51:54;6.80;;;6.20;;
2438;SDS011;14509;47.992;7.848;2023-04-16T07:53:57;7.40;;;6.70;;
2438;SDS011;14509;47.992;7.848;2023-04-16T07:55:59;9.37;;;7.53;;
2438;SDS011;14509;47.992;7.848;2023-04-16T07:58:01;9.40;;;8.50;;
2438;SDS011;14509;47.992;7.848;2023-04-16T08:00:03;10.03;;;6.97;;
2438;SDS011;14509;47.992;7.848;2023-04-16T08:02:15;9.13;;;7.43;;
2438;SDS011;14509;47.992;7.848;2023-04-16T08:04:17;11.17;;;7.00;;
2438;SDS011;14509;47.992;7.848;2023-04-16T08:06:23;8.20;;;6.60;;
2438;SDS011;14509;47.992;7.848;2023-04-16T08:08:26;10.33;;;9.17;;
2438;SDS011;14509;47.992;7.848;2023-04-16T08:10:30;8.73;;;7.37;;
2438;SDS011;14509;47.992;7.848;2023-04-16T08:12:32;7.90;;;7.03;;
2438;SDS011;14509;47.992;7.848;2023-04-16T08:14:34;6.77;;;6.00;;
2438;SDS011;14509;47.992;7.848;2023-04-16T08:16:35;6.93;;;6.23;;
2438;SDS011;14509;47.992;7.848;2023-04-16T08:18:39;6.20;;;5.60;;
2438;SDS011;14509;47.992;7.848;2023-04-16T08:20:41;8.83;;;5.90;;
2438;SDS011;14509;47.992;7.848;2023-04-16T08:22:43;8.17;;;6.20;;
2438;SDS011;14509;47.992;7.848;2023-04-16T08:24:45;7.87;;;6.53;;
2438;SDS011;14509;47.992;7.848;2023-04-16T08:26:48;7.03;;;6.33;;
2438;SDS011;14509;47.992;7.848;2023-04-16T08:28:50;6.60;;;6.00;;
2438;SDS011;14509;47.992;7.848;2023-04-16T08:30:52;6.73;;;5.73;;
2438;SDS011;14509;47.992;7.848;2023-04-16T08:32:54;8.33;;;7.53;;
2438;SDS011;14509;47.992;7.848;2023-04-16T08:34:56;6.97;;;5.90;;
2438;SDS011;14509;47.992;7.848;2023-04-16T08:36:58;6.90;;;6.17;;
2438;SDS011;14509;47.992;7.848;2023-04-16T08:38:59;5.77;;;5.03;;
2438;SDS011;14509;47.992;7.848;2023-04-16T08:41:02;5.33;;;4.83;;
2438;SDS011;14509;47.992;7.848;2023-04-16T08:43:09;6.70;;;5.87;;
2438;SDS011;14509;47.992;7.848;2023-04-16T08:45:16;12.03;;;6.90;;
2438;SDS011;14509;47.992;7.848;2023-04-16T08:47:18;7.00;;;5.90;;
2438;SDS011;14509;47.992;7.848;2023-04-16T08:49:24;7.50;;;6.70;;
2438;SDS011;14509;47.992;7.848;2023-04-16T08:51:27;6.67;;;5.00;;
2438;SDS011;14509;47.992;7.848;2023-04-16T08:53:34;8.90;;;6.20;;
2438;SDS011;14509;47.992;7.848;2023-04-16T08:55:42;7.37;;;6.07;;
2438;SDS011;14509;47.992;7.848;2023-04-16T08:57:49;6.83;;;5.30;;
2438;SDS011;14509;47.992;7.848;2023-04-16T08:59:55;8.23;;;6.03;;
2438;SDS011;14509;47.992;7.848;2023-04-16T09:01:58;6.80;;;6.10;;
2438;SDS011;14509;47.992;7.848;2023-04-16T09:04:01;7.43;;;6.33;;
2438;SDS011;14509;47.992;7.848;2023-04-16T09:06:03;7.70;;;6.87;;
2438;SDS011;14509;47.992;7.848;2023-04-16T09:08:06;7.87;;;6.70;;
2438;SDS011;14509;47.992;7.848;2023-04-16T09:10:08;7.83;;;6.73;;
2438;SDS011;14509;47.992;7.848;2023-04-16T09:12:11;6.10;;;5.50;;
2438;SDS011;14509;47.992;7.848;2023-04-16T09:14:13;8.57;;;6.30;;
2438;SDS011;14509;47.992;7.848;2023-04-16T09:16:17;9.40;;;6.50;;
2438;SDS011;14509;47.992;7.848;2023-04-16T09:18:20;8.77;;;6.03;;
2438;SDS011;14509;47.992;7.848;2023-04-16T09:20:22;8.00;;;6.57;;
2438;SDS011;14509;47.992;7.848;2023-04-16T09:22:24;10.07;;;6.67;;
2438;SDS011;14509;47.992;7.848;2023-04-16T09:24:27;7.63;;;5.77;;
2438;SDS011;14509;47.992;7.848;2023-04-16T09:59:31;7.37;;;6.27;;
2438;SDS011;14509;47.992;7.848;2023-04-16T10:01:36;7.47;;;6.53;;
2438;SDS011;14509;47.992;7.848;2023-04-16T10:03:38;8.53;;;6.43;;
2438;SDS011;14509;47.992;7.848;2023-04-16T10:05:40;11.07;;;6.77;;
2438;SDS011;14509;47.992;7.848;2023-04-16T10:07:42;10.13;;;6.90;;
2438;SDS011;14509;47.992;7.848;2023-04-16T10:09:45;8.30;;;6.97;;
2438;SDS011;14509;47.992;7.848;2023-04-16T10:11:48;10.73;;;7.93;;
2438;SDS011;14509;47.992;7.848;2023-04-16T10:13:50;9.33;;;7.80;;
2438;SDS011;14509;47.992;7.848;2023-04-16T10:15:55;10.70;;;7.40;;
2438;SDS011;14509;47.992;7.848;2023-04-16T10:17:57;9.40;;;6.53;;
2438;SDS011;14509;47.992;7.848;2023-04-16T10:20:00;8.60;;;6.50;;
2438;SDS011;14509;47.992;7.848;2023-04-16T10:22:03;11.83;;;8.73;;
2438;SDS011;14509;47.992;7.848;2023-04-16T10:24:06;10.57;;;8.23;;
2438;SDS011;14509;47.992;7.848;2023-04-16T10:26:08;11.70;;;7.23;;
2438;SDS011;14509;47.992;7.848;2023-04-16T10:28:10;12.17;;;7.83;;
2438;SDS011;14509;47.992;7.848;2023-04-16T10:30:14;10.43;;;8.10;;
2438;SDS011;14509;47.992;7.848;2023-04-16T10:32:18;11.40;;;7.43;;
2438;SDS011;14509;47.992;7.848;2023-04-16T10:34:21;11.67;;;7.77;;
2438;SDS011;14509;47.992;7.848;2023-04-16T10:36:24;11.20;;;9.13;;
2438;SDS011;14509;47.992;7.848;2023-04-16T10:38:26;10.87;;;8.40;;
2438;SDS011;14509;47.992;7.848;2023-04-16T10:40:28;9.60;;;7.67;;
2438;SDS011;14509;47.992;7.848;2023-04-16T10:42:30;11.50;;;8.60;;
2438;SDS011;14509;47.992;7.848;2023-04-16T10:44:32;13.03;;;8.87;;
2438;SDS011;14509;47.992;7.848;2023-04-16T10:46:36;11.27;;;8.20;;
2438;SDS011;14509;47.992;7.848;2023-04-16T10:48:40;11.07;;;8.00;;
2438;SDS011;14509;47.992;7.848;2023-04-16T10:50:42;11.30;;;7.80;;
2438;SDS011;14509;47.992;7.848;2023-04-16T10:55:18;11.37;;;7.90;;
2438;SDS011;14509;47.992;7.848;2023-04-16T10:57:20;13.57;;;9.20;;
2438;SDS011;14509;47.992;7.848;2023-04-16T10:59:23;10.80;;;8.63;;
2438;SDS011;14509;47.992;7.848;2023-04-16T11:01:28;8.57;;;7.30;;
2438;SDS011;14509;47.992;7.848;2023-04-16T11:03:31;11.77;;;7.63;;
2438;SDS011;14509;47.992;7.848;2023-04-16T11:05:44;8.90;;;7.07;;
2438;SDS011;14509;47.992;7.848;2023-04-16T11:07:47;10.63;;;6.70;;
2438;SDS011;14509;47.992;7.848;2023-04-16T11:09:55;10.40;;;7.57;;
2438;SDS011;14509;47.992;7.848;2023-04-16T11:11:58;12.90;;;8.67;;
2438;SDS011;14509;47.992;7.848;2023-04-16T11:14:01;11.67;;;7.77;;
2438;SDS011;14509;47.992;7.848;2023-04-16T11:16:06;11.60;;;8.47;;
2438;SDS011;14509;47.992;7.848;2023-04-16T11:18:08;11.17;;;8.30;;
2438;SDS011;14509;47.992;7.848;2023-04-16T11:20:14;12.63;;;7.27;;
2438;SDS011;14509;47.992;7.848;2023-04-16T11:22:20;10.80;;;8.20;;
2438;SDS011;14509;47.992;7.848;2023-04-16T11:24:22;11.67;;;8.07;;
2438;SDS011;14509;47.992;7.848;2023-04-16T11:26:25;14.27;;;7.90;;
2438;SDS011;14509;47.992;7.848;2023-04-16T11:28:31;10.53;;;6.83;;
2438;SDS011;14509;47.992;7.848;2023-04-16T11:30:34;10.17;;;7.80;;
2438;SDS011;14509;47.992;7.848;2023-04-16T11:32:37;9.07;;;7.60;;
2438;SDS011;14509;47.992;7.848;2023-04-16T11:34:43;12.63;;;8.50;;
2438;SDS011;14509;47.992;7.848;2023-04-16T11:36:46;9.00;;;6.73;;
2438;SDS011;14509;47.992;7.848;2023-04-16T11:38:50;10.40;;;7.93;;
2438;SDS011;14509;47.992;7.848;2023-04-16T11:41:03;11.90;;;6.97;;
2438;SDS011;14509;47.992;7.848;2023-04-16T11:43:11;12.47;;;7.30;;
2438;SDS011;14509;47.992;7.848;2023-04-16T11:45:14;11.63;;;8.30;;
2438;SDS011;14509;47.992;7.848;2023-04-16T11:47:18;11.17;;;8.07;;
2438;SDS011;14509;47.992;7.848;2023-04-16T11:49:26;11.10;;;6.73;;
2438;SDS011;14509;47.992;7.848;2023-04-16T11:51:30;8.70;;;7.00;;
2438;SDS011;14509;47.992;7.848;2023-04-16T11:53:32;9.90;;;7.37;;
2438;SDS011;14509;47.992;7.848;2023-04-16T11:55:43;8.80;;;7.13;;
2438;SDS011;14509;47.992;7.848;2023-04-16T11:57:45;15.80;;;9.43;;
2438;SDS011;14509;47.992;7.848;2023-04-16T11:59:47;8.10;;;6.30;;
2438;SDS011;14509;47.992;7.848;2023-04-16T12:01:50;11.30;;;6.67;;
2438;SDS011;14509;47.992;7.848;2023-04-16T12:03:59;10.37;;;7.83;;
2438;SDS011;14509;47.992;7.848;2023-04-16T12:06:06;9.93;;;8.13;;
2438;SDS011;14509;47.992;7.848;2023-04-16T12:08:09;9.73;;;6.90;;
2438;SDS011;14509;47.992;7.848;2023-04-16T12:10:12;9.90;;;6.13;;
2438;SDS011;14509;47.992;7.848;2023-04-16T12:12:25;10.90;;;8.60;;
2438;SDS011;14509;47.992;7.848;2023-04-16T12:14:29;9.20;;;6.93;;
2438;SDS011;14509;47.992;7.848;2023-04-16T12:16:31;11.27;;;7.57;;
2438;SDS011;14509;47.992;7.848;2023-04-16T12:18:33;13.20;;;7.83;;
2438;SDS011;14509;47.992;7.848;2023-04-16T12:20:38;9.63;;;6.73;;
2438;SDS011;14509;47.992;7.848;2023-04-16T12:22:43;12.73;;;8.00;;
2438;SDS011;14509;47.992;7.848;2023-04-16T12:24:46;9.63;;;6.47;;
2438;SDS011;14509;47.992;7.848;2023-04-16T12:26:51;12.03;;;6.80;;
2438;SDS011;14509;47.992;7.848;2023-04-16T12:29:02;9.80;;;7.17;;
2438;SDS011;14509;47.992;7.848;2023-04-16T12:31:18;11.23;;;7.80;;
2438;SDS011;14509;47.992;7.848;2023-04-16T12:33:37;10.43;;;7.90;;
2438;SDS011;14509;47.992;7.848;2023-04-16T12:35:40;13.43;;;7.70;;
2438;SDS011;14509;47.992;7.848;2023-04-16T12:37:44;10.60;;;7.40;;
2438;SDS011;14509;47.992;7.848;2023-04-16T12:39:46;17.03;;;9.40;;
2438;SDS011;14509;47.992;7.848;2023-04-16T12:41:48;9.77;;;7.60;;
2438;SDS011;14509;47.992;7.848;2023-04-16T12:43:50;9.63;;;6.50;;
2438;SDS011;14509;47.992;7.848;2023-04-16T12:45:54;12.87;;;8.70;;
2438;SDS011;14509;47.992;7.848;2023-04-16T12:47:56;10.63;;;6.90;;
2438;SDS011;14509;47.992;7.848;2023-04-16T12:49:58;9.80;;;7.77;;
2438;SDS011;14509;47.992;7.848;2023-04-16T12:52:01;12.50;;;8.03;;
2438;SDS011;14509;47.992;7.848;2023-04-16T12:54:04;10.00;;;7.53;;
2438;SDS011;14509;47.992;7.848;2023-04-16T12:56:07;10.80;;;7.07;;
2438;SDS011;14509;47.992;7.848;2023-04-16T12:58:09;9.37;;;7.77;;
2438;SDS011;14509;47.992;7.848;2023-04-16T13:00:12;13.80;;;7.90;;
2438;SDS011;14509;47.992;7.848;2023-04-16T13:02:16;9.67;;;7.40;;
2438;SDS011;14509;47.992;7.848;2023-04-16T13:04:19;11.57;;;7.67;;